Time;durP1;ratioP1;P1;durP2;ratioP2;P2;SDS_P1;SDS_P2;PMS_P1;PMS_P2;Temp;Humidity;BMP_temperature;BMP_pressure;BME280_temperature;BME280_humidity;BME280_pressure;Samples;Min_cycle;Max_cycle;Signal;HPM_P1;HPM_P2
2022/10/19 00:01:03;;;;;;;2.50;1.13;;;10.70;99.90;;;;;;5016743;28;20395;-82
2022/10/19 00:03:30;;;;;;;5.28;1.58;;;10.70;99.90;;;;;;5016764;28;20089;-82
2022/10/19 00:05:55;;;;;;;6.05;1.65;;;10.70;99.90;;;;;;5016457;28;20048;-82
2022/10/19 00:08:21;;;;;;;5.10;1.30;;;10.80;99.90;;;;;;4999804;28;20474;-80
2022/10/19 00:10:47;;;;;;;3.72;1.35;;;10.80;99.90;;;;;;5012792;28;20050;-80
2022/10/19 00:13:12;;;;;;;3.28;1.23;;;10.80;99.90;;;;;;5015649;28;20119;-80
2022/10/19 00:15:39;;;;;;;4.80;1.20;;;10.80;99.90;;;;;;4983595;28;20049;-79
2022/10/19 00:18:06;;;;;;;3.83;1.27;;;10.80;99.90;;;;;;5000005;28;20125;-80
2022/10/19 00:20:33;;;;;;;5.15;1.50;;;10.80;99.90;;;;;;5015092;28;20499;-81
2022/10/19 00:22:59;;;;;;;3.83;1.50;;;10.90;99.90;;;;;;5015223;28;20053;-80
2022/10/19 00:25:24;;;;;;;3.25;1.20;;;11.40;99.90;;;;;;4987618;28;20459;-80
2022/10/19 00:27:50;;;;;;;3.22;1.38;;;10.90;99.90;;;;;;5004826;28;20124;-80
2022/10/19 00:30:16;;;;;;;4.88;1.40;;;10.90;99.90;;;;;;4999044;28;20052;-80
2022/10/19 00:32:42;;;;;;;3.63;1.38;;;10.90;99.90;;;;;;5015505;28;20049;-80
2022/10/19 00:35:08;;;;;;;4.68;1.25;;;10.90;99.90;;;;;;4995434;28;20232;-80
2022/10/19 00:37:33;;;;;;;4.55;1.25;;;11.00;99.90;;;;;;5014387;28;20107;-80
2022/10/19 00:39:59;;;;;;;3.42;1.50;;;11.10;99.90;;;;;;4984238;28;20084;-80
2022/10/19 00:42:25;;;;;;;2.78;1.20;;;11.00;99.90;;;;;;5020973;28;20049;-80
2022/10/19 00:44:50;;;;;;;4.18;1.20;;;11.00;99.90;;;;;;4999807;28;20049;-80
2022/10/19 00:47:21;;;;;;;3.70;1.17;;;11.10;99.90;;;;;;4995411;28;20567;-80
2022/10/19 00:49:47;;;;;;;6.25;1.40;;;11.10;99.90;;;;;;4997948;28;20089;-80
2022/10/19 00:52:18;;;;;;;6.82;1.10;;;11.20;99.90;;;;;;5011986;28;20548;-80
2022/10/19 00:54:46;;;;;;;6.70;1.20;;;11.20;99.90;;;;;;5020838;28;20052;-80
2022/10/19 00:57:12;;;;;;;5.28;1.23;;;11.20;99.90;;;;;;5003775;28;20045;-81
2022/10/19 00:59:40;;;;;;;8.73;1.33;;;11.30;99.90;;;;;;5001279;28;20053;-81
2022/10/19 01:02:06;;;;;;;4.47;0.90;;;11.30;99.90;;;;;;5003202;28;20072;-81
2022/10/19 01:04:34;;;;;;;6.13;1.30;;;11.30;99.90;;;;;;4980579;28;20045;-81
2022/10/19 01:07:03;;;;;;;5.70;1.40;;;11.30;99.90;;;;;;5016208;28;20042;-82
2022/10/19 01:09:29;;;;;;;4.40;1.17;;;11.30;99.90;;;;;;5014429;28;20053;-80
2022/10/19 01:12:07;;;;;;;4.25;1.00;;;11.40;99.90;;;;;;5002368;28;20505;-81
2022/10/19 01:14:57;;;;;;;4.45;1.30;;;11.40;99.90;;;;;;4998038;28;20084;-81
2022/10/19 01:17:44;;;;;;;6.38;1.20;;;11.40;99.90;;;;;;5016909;28;20065;-81
2022/10/19 01:20:46;;;;;;;5.25;1.13;;;11.40;99.90;;;;;;5001737;28;20100;-82
2022/10/19 01:23:45;;;;;;;3.40;1.13;;;11.40;99.90;;;;;;5024268;28;20045;-80
2022/10/19 01:26:45;;;;;;;6.47;1.42;;;11.40;99.90;;;;;;5017330;28;20045;-80
2022/10/19 01:29:41;;;;;;;6.47;1.00;;;11.30;99.90;;;;;;5018011;28;20055;-81
2022/10/19 01:32:13;;;;;;;3.40;0.87;;;11.30;99.90;;;;;;5001443;28;20045;-81
2022/10/19 01:34:53;;;;;;;10.18;1.65;;;11.30;99.90;;;;;;5024762;28;20440;-80
2022/10/19 01:37:48;;;;;;;5.25;1.52;;;11.30;99.90;;;;;;5025482;28;20054;-81
2022/10/19 01:40:34;;;;;;;4.55;1.05;;;11.30;99.90;;;;;;5017632;28;20053;-82
2022/10/19 01:43:08;;;;;;;6.38;1.42;;;11.40;99.90;;;;;;5042553;28;20045;-81
2022/10/19 01:45:54;;;;;;;8.38;1.20;;;11.40;99.90;;;;;;5018855;28;20056;-81
2022/10/19 01:48:33;;;;;;;6.17;1.30;;;11.40;99.90;;;;;;5019011;28;20053;-81
2022/10/19 01:51:06;;;;;;;4.85;1.30;;;11.40;99.90;;;;;;5020257;28;20286;-81
2022/10/19 01:53:39;;;;;;;7.80;1.50;;;11.40;99.90;;;;;;5042040;28;20053;-80
2022/10/19 01:56:06;;;;;;;5.28;0.95;;;11.40;99.90;;;;;;5018122;28;20068;-81
2022/10/19 01:58:35;;;;;;;5.57;1.10;;;11.40;99.90;;;;;;5018095;28;20048;-81
2022/10/19 02:01:05;;;;;;;6.70;1.52;;;11.40;99.90;;;;;;5000837;28;20495;-81
2022/10/19 02:03:33;;;;;;;4.05;1.38;;;11.40;99.90;;;;;;5024917;28;20502;-81
2022/10/19 02:06:02;;;;;;;6.57;1.38;;;11.40;99.90;;;;;;5024664;28;20052;-80
2022/10/19 02:08:39;;;;;;;5.47;1.27;;;11.40;99.90;;;;;;5017800;28;20065;-81
2022/10/19 02:11:05;;;;;;;6.07;1.30;;;11.40;99.90;;;;;;5008864;28;20062;-81
2022/10/19 02:13:32;;;;;;;4.88;1.00;;;11.40;99.90;;;;;;5000323;28;20188;-81
2022/10/19 02:16:02;;;;;;;6.13;1.20;;;11.40;99.90;;;;;;5017179;28;20132;-81
2022/10/19 02:18:33;;;;;;;7.63;1.50;;;11.40;99.90;;;;;;5016545;28;20065;-81
2022/10/19 02:21:02;;;;;;;6.13;1.70;;;11.40;99.90;;;;;;5025611;28;20089;-80
2022/10/19 02:23:27;;;;;;;4.20;1.20;;;11.40;99.90;;;;;;5007973;28;20053;-81
2022/10/19 02:25:54;;;;;;;5.63;1.30;;;11.40;99.90;;;;;;5000595;28;20511;-81
2022/10/19 02:28:21;;;;;;;6.28;1.38;;;11.40;99.90;;;;;;5016489;28;20179;-80
2022/10/19 02:30:47;;;;;;;4.32;1.20;;;11.30;99.90;;;;;;5001088;28;20495;-81
2022/10/19 02:33:13;;;;;;;4.05;0.98;;;11.30;99.90;;;;;;5017271;28;20060;-81
2022/10/19 02:35:39;;;;;;;5.15;1.55;;;11.30;99.90;;;;;;5000724;28;20099;-81
2022/10/19 02:38:09;;;;;;;7.45;1.27;;;11.30;99.90;;;;;;5025728;28;20476;-80
2022/10/19 02:40:40;;;;;;;6.35;1.20;;;11.30;99.90;;;;;;5012261;28;20045;-80
2022/10/19 02:43:12;;;;;;;5.97;1.20;;;11.40;99.90;;;;;;5020946;28;20057;-80
2022/10/19 02:45:45;;;;;;;5.72;1.40;;;11.30;99.90;;;;;;5020864;28;20054;-80
2022/10/19 02:48:17;;;;;;;9.13;1.73;;;11.30;99.90;;;;;;5003512;28;20049;-80
2022/10/19 02:50:46;;;;;;;10.25;1.55;;;11.30;99.90;;;;;;5022504;28;20053;-80
2022/10/19 02:53:12;;;;;;;4.32;1.60;;;11.30;99.90;;;;;;5019904;28;20045;-80
2022/10/19 02:55:38;;;;;;;8.40;1.35;;;11.30;99.90;;;;;;5004046;28;20489;-80
2022/10/19 02:58:04;;;;;;;4.95;1.42;;;11.30;99.90;;;;;;5005102;28;20125;-81
2022/10/19 03:00:30;;;;;;;4.22;1.20;;;11.30;99.90;;;;;;4988245;28;20139;-80
2022/10/19 03:02:56;;;;;;;5.75;1.42;;;11.30;99.90;;;;;;5004879;28;20442;-80
2022/10/19 03:05:21;;;;;;;4.93;1.10;;;11.30;99.90;;;;;;5018407;28;20042;-80
2022/10/19 03:07:47;;;;;;;6.07;1.70;;;11.30;99.90;;;;;;4988242;28;20121;-80
2022/10/19 03:10:12;;;;;;;7.88;1.48;;;11.30;99.90;;;;;;5004475;28;20049;-80
2022/10/19 03:12:38;;;;;;;6.70;1.65;;;11.30;99.90;;;;;;5004232;28;20132;-80
2022/10/19 03:15:04;;;;;;;10.80;1.83;;;11.30;99.90;;;;;;5004918;28;20092;-80
2022/10/19 03:17:30;;;;;;;7.45;1.48;;;11.30;99.90;;;;;;5003448;28;20081;-80
2022/10/19 03:19:56;;;;;;;4.78;1.50;;;11.40;99.90;;;;;;5045143;28;20466;-79
2022/10/19 03:22:21;;;;;;;4.50;1.27;;;11.40;99.90;;;;;;5003823;28;20056;-83
2022/10/19 03:24:47;;;;;;;4.80;1.27;;;11.40;99.90;;;;;;5003116;28;20119;-80
2022/10/19 03:27:13;;;;;;;5.60;1.52;;;11.40;99.90;;;;;;5003657;28;20053;-80
2022/10/19 03:29:38;;;;;;;7.72;1.80;;;11.40;99.90;;;;;;5004364;28;20088;-80
2022/10/19 03:32:04;;;;;;;6.68;1.50;;;11.40;99.90;;;;;;5019389;28;20053;-79
2022/10/19 03:34:30;;;;;;;12.75;2.88;;;11.30;99.90;;;;;;5002507;28;20041;-79
2022/10/19 03:36:58;;;;;;;5.30;1.13;;;11.30;99.90;;;;;;5004340;28;20057;-80
2022/10/19 03:39:24;;;;;;;6.03;1.50;;;11.30;99.90;;;;;;4987868;28;20400;-80
2022/10/19 03:41:50;;;;;;;6.40;1.38;;;11.30;99.90;;;;;;5003926;28;20408;-79
2022/10/19 03:44:15;;;;;;;4.15;1.30;;;11.30;99.90;;;;;;5003474;28;20046;-84
2022/10/19 03:46:41;;;;;;;7.13;1.70;;;11.30;99.90;;;;;;4976674;28;20479;-81
2022/10/19 03:49:08;;;;;;;4.43;1.38;;;11.30;99.90;;;;;;5002589;28;20045;-81
2022/10/19 03:51:34;;;;;;;7.47;1.50;;;11.20;99.90;;;;;;5002773;28;20041;-81
2022/10/19 03:54:03;;;;;;;6.10;1.52;;;11.80;99.90;;;;;;5019466;28;20124;-81
2022/10/19 03:56:30;;;;;;;9.32;1.70;;;11.30;99.90;;;;;;5010149;28;20057;-81
2022/10/19 03:58:58;;;;;;;6.45;1.73;;;11.20;99.90;;;;;;5004087;28;20100;-81
2022/10/19 04:01:30;;;;;;;7.18;1.38;;;11.20;99.90;;;;;;5026459;28;20491;-82
2022/10/19 04:04:00;;;;;;;6.13;1.50;;;11.20;99.90;;;;;;5019864;28;20111;-81
2022/10/19 04:06:32;;;;;;;6.15;1.40;;;11.10;99.90;;;;;;5019085;28;20045;-81
2022/10/19 04:08:58;;;;;;;8.45;1.77;;;11.10;99.90;;;;;;5036166;28;20112;-81
2022/10/19 04:11:26;;;;;;;5.53;1.60;;;11.10;99.90;;;;;;5019603;28;20037;-80
2022/10/19 04:13:53;;;;;;;7.15;1.55;;;11.10;99.90;;;;;;5019579;28;20051;-81
2022/10/19 04:16:20;;;;;;;5.93;2.03;;;11.10;99.90;;;;;;5018906;28;20053;-82
2022/10/19 04:18:46;;;;;;;8.05;1.63;;;11.10;99.90;;;;;;5018572;28;20052;-80
2022/10/19 04:21:29;;;;;;;8.00;1.60;;;11.10;99.90;;;;;;5002612;28;20049;-81
2022/10/19 04:24:05;;;;;;;4.90;1.40;;;11.00;99.90;;;;;;5019686;28;20107;-80
2022/10/19 04:26:33;;;;;;;4.07;1.45;;;11.00;99.90;;;;;;5010181;28;20053;-81
2022/10/19 04:29:00;;;;;;;6.78;1.40;;;11.00;99.90;;;;;;5018803;28;20063;-80
2022/10/19 04:31:27;;;;;;;7.85;1.75;;;11.00;99.90;;;;;;5014772;28;20056;-80
2022/10/19 04:33:53;;;;;;;8.07;1.60;;;11.00;99.90;;;;;;5014618;28;20056;-82
2022/10/19 04:36:22;;;;;;;5.80;1.48;;;11.00;99.90;;;;;;5018144;28;20050;-81
2022/10/19 04:38:47;;;;;;;9.32;1.40;;;11.00;99.90;;;;;;5033977;28;20057;-82
2022/10/19 04:41:15;;;;;;;5.53;1.55;;;11.00;99.90;;;;;;5018029;28;20034;-82
2022/10/19 04:43:44;;;;;;;11.45;2.10;;;10.90;99.90;;;;;;5016660;28;21791;-83
2022/10/19 04:46:18;;;;;;;4.55;1.38;;;10.90;99.90;;;;;;5003138;28;20045;-82
2022/10/19 04:48:45;;;;;;;4.10;1.20;;;10.90;99.90;;;;;;5009410;28;20083;-82
2022/10/19 04:51:12;;;;;;;6.93;1.65;;;10.90;99.90;;;;;;5018839;28;20056;-81
2022/10/19 04:53:39;;;;;;;8.65;1.73;;;10.90;99.90;;;;;;5017991;28;20085;-82
2022/10/19 04:56:13;;;;;;;5.30;1.10;;;10.90;99.90;;;;;;5019578;28;20137;-81
2022/10/19 04:58:39;;;;;;;6.63;2.08;;;10.90;99.90;;;;;;5018755;28;20053;-81
2022/10/19 05:01:09;;;;;;;7.57;1.55;;;11.00;99.90;;;;;;5002104;28;20062;-82
2022/10/19 05:03:35;;;;;;;9.60;2.15;;;10.80;99.90;;;;;;5034127;28;20080;-82
2022/10/19 05:06:00;;;;;;;7.07;1.63;;;10.80;99.90;;;;;;5001366;28;20516;-81
2022/10/19 05:08:26;;;;;;;9.77;1.90;;;10.80;99.90;;;;;;5001710;28;20046;-82
2022/10/19 05:10:52;;;;;;;5.38;1.30;;;10.80;99.90;;;;;;5002690;28;20052;-82
2022/10/19 05:13:17;;;;;;;6.70;1.50;;;10.70;99.90;;;;;;4991847;28;20486;-81
2022/10/19 05:15:43;;;;;;;6.10;1.38;;;10.70;99.90;;;;;;5001441;28;20124;-81
2022/10/19 05:18:09;;;;;;;7.45;1.02;;;10.60;99.90;;;;;;5018385;28;20100;-82
2022/10/19 05:20:34;;;;;;;4.80;1.50;;;10.60;99.90;;;;;;5017554;28;20054;-82
2022/10/19 05:23:00;;;;;;;7.20;1.90;;;10.60;99.90;;;;;;5008758;28;20049;-83
2022/10/19 05:25:29;;;;;;;4.50;1.10;;;10.60;99.90;;;;;;5002049;28;20038;-82
2022/10/19 05:27:54;;;;;;;6.53;1.27;;;10.50;99.90;;;;;;4985992;28;20645;-81
2022/10/19 05:30:23;;;;;;;4.20;1.05;;;10.50;99.90;;;;;;5001221;28;20136;-81
2022/10/19 05:32:48;;;;;;;4.80;1.10;;;10.90;99.90;;;;;;5018081;28;20050;-81
2022/10/19 05:35:14;;;;;;;6.13;1.20;;;10.90;99.90;;;;;;4984492;28;20061;-81
2022/10/19 05:37:40;;;;;;;6.72;1.20;;;10.40;99.90;;;;;;5023110;28;20053;-81
2022/10/19 05:40:06;;;;;;;6.85;1.73;;;10.40;99.90;;;;;;5000339;28;20500;-80
2022/10/19 05:42:32;;;;;;;7.15;1.60;;;10.30;99.90;;;;;;5017583;28;20590;-83
2022/10/19 05:44:58;;;;;;;6.95;1.40;;;10.30;99.90;;;;;;5000781;28;20132;-82
2022/10/19 05:47:24;;;;;;;5.47;1.52;;;10.30;99.90;;;;;;4999481;28;20041;-82
2022/10/19 05:49:49;;;;;;;9.52;1.50;;;10.30;99.90;;;;;;5016786;28;20399;-81
2022/10/19 05:52:16;;;;;;;8.30;1.50;;;10.30;99.90;;;;;;4999714;28;20057;-82
2022/10/19 05:54:42;;;;;;;4.80;1.60;;;10.30;99.90;;;;;;5019521;28;20618;-82
2022/10/19 05:57:08;;;;;;;6.57;1.77;;;10.30;99.90;;;;;;5000115;28;20509;-81
2022/10/19 05:59:33;;;;;;;6.35;1.67;;;10.30;99.90;;;;;;4999829;28;20479;-81
2022/10/19 06:01:59;;;;;;;4.78;1.42;;;10.30;99.90;;;;;;5003533;28;20050;-82
2022/10/19 06:04:25;;;;;;;10.07;1.40;;;10.30;99.90;;;;;;4982520;28;20123;-80
2022/10/19 06:06:50;;;;;;;7.22;1.30;;;10.30;99.90;;;;;;5000164;28;20037;-81
2022/10/19 06:09:16;;;;;;;4.93;1.27;;;10.30;99.90;;;;;;4999161;28;20495;-81
2022/10/19 06:11:42;;;;;;;8.30;1.40;;;10.30;99.90;;;;;;4982512;28;20531;-81
2022/10/19 06:14:12;;;;;;;7.32;1.52;;;10.30;99.90;;;;;;4999182;28;20114;-84
2022/10/19 06:16:38;;;;;;;3.67;1.40;;;10.30;99.90;;;;;;5006492;28;20065;-81
2022/10/19 06:19:06;;;;;;;7.20;1.80;;;10.30;99.90;;;;;;5003844;28;20554;-81
2022/10/19 06:21:33;;;;;;;10.43;1.80;;;10.30;99.90;;;;;;5018506;28;20061;-81
2022/10/19 06:24:04;;;;;;;5.70;1.33;;;10.30;99.90;;;;;;5009425;28;20038;-81
2022/10/19 06:26:31;;;;;;;6.65;1.95;;;10.30;99.90;;;;;;5008603;28;20044;-81
2022/10/19 06:28:59;;;;;;;14.45;1.75;;;10.30;99.90;;;;;;5023045;28;20049;-80
2022/10/19 06:31:26;;;;;;;8.25;1.90;;;10.40;99.90;;;;;;5018979;28;20056;-81
2022/10/19 06:33:52;;;;;;;4.00;1.48;;;10.30;99.90;;;;;;5008433;28;20050;-80
2022/10/19 06:36:20;;;;;;;7.03;1.45;;;10.40;99.90;;;;;;5002439;28;20049;-81
2022/10/19 06:38:47;;;;;;;7.35;1.38;;;10.40;99.90;;;;;;5018519;28;20042;-80
2022/10/19 06:41:13;;;;;;;4.82;1.30;;;10.40;99.90;;;;;;5002217;28;20077;-81
2022/10/19 06:43:41;;;;;;;4.95;1.27;;;10.40;99.90;;;;;;5017645;28;20041;-80
2022/10/19 06:46:19;;;;;;;6.97;1.50;;;10.50;99.90;;;;;;5000725;28;20135;-80
2022/10/19 06:48:59;;;;;;;7.00;1.70;;;10.50;99.90;;;;;;5001434;28;20056;-81
2022/10/19 06:51:27;;;;;;;6.68;1.73;;;10.50;99.90;;;;;;5007888;28;20953;-82
2022/10/19 06:53:53;;;;;;;5.35;1.42;;;10.50;99.90;;;;;;5018279;28;20117;-82
2022/10/19 06:56:19;;;;;;;9.10;2.08;;;10.50;99.90;;;;;;5008068;28;20069;-82
2022/10/19 06:58:45;;;;;;;7.47;1.38;;;10.60;99.90;;;;;;5016703;28;20049;-81
2022/10/19 07:01:12;;;;;;;7.53;1.55;;;10.60;99.90;;;;;;5016199;28;20055;-81
2022/10/19 07:03:39;;;;;;;6.82;1.52;;;10.60;99.90;;;;;;4998891;28;20050;-82
2022/10/19 07:06:07;;;;;;;6.82;1.40;;;10.80;99.90;;;;;;5019217;28;20049;-81
2022/10/19 07:08:34;;;;;;;7.82;1.67;;;10.70;99.90;;;;;;5018091;28;20047;-82
2022/10/19 07:11:03;;;;;;;8.45;1.67;;;10.70;99.90;;;;;;4984708;28;20037;-82
2022/10/19 07:13:30;;;;;;;5.60;1.48;;;10.80;99.90;;;;;;5035200;28;20045;-82
2022/10/19 07:16:05;;;;;;;6.05;1.60;;;10.80;99.90;;;;;;4997672;28;20049;-82
2022/10/19 07:18:32;;;;;;;5.07;1.50;;;10.90;99.90;;;;;;5017645;28;20045;-81
2022/10/19 07:21:01;;;;;;;6.90;1.65;;;11.00;99.90;;;;;;5021093;28;20156;-82
2022/10/19 07:23:28;;;;;;;7.10;1.80;;;11.00;99.90;;;;;;5018104;28;20160;-82
2022/10/19 07:25:59;;;;;;;5.10;1.20;;;11.10;99.90;;;;;;5015091;28;20373;-82
2022/10/19 07:28:26;;;;;;;8.50;1.98;;;11.10;99.90;;;;;;5004700;28;20056;-82
2022/10/19 07:30:52;;;;;;;8.15;1.67;;;11.20;99.90;;;;;;5013708;28;20049;-82
2022/10/19 07:33:18;;;;;;;7.10;1.60;;;11.20;99.90;;;;;;4980986;28;20049;-82
2022/10/19 07:35:43;;;;;;;6.85;1.60;;;11.30;99.90;;;;;;4980838;28;20514;-82
2022/10/19 07:38:09;;;;;;;4.70;1.60;;;11.40;99.90;;;;;;4994790;28;20045;-81
2022/10/19 07:40:35;;;;;;;7.53;1.55;;;11.40;99.90;;;;;;5012663;28;20081;-82
2022/10/19 07:43:01;;;;;;;6.00;1.63;;;11.50;99.90;;;;;;5006102;28;20125;-82
2022/10/19 07:45:26;;;;;;;6.22;1.60;;;11.50;99.90;;;;;;5002556;28;20049;-82
2022/10/19 07:47:52;;;;;;;7.28;1.50;;;11.60;99.90;;;;;;5017535;28;20048;-82
2022/10/19 07:50:18;;;;;;;5.55;1.50;;;11.70;99.90;;;;;;4983170;28;20107;-82
2022/10/19 07:52:43;;;;;;;12.82;1.88;;;11.70;99.90;;;;;;5015319;28;20049;-81
2022/10/19 07:55:09;;;;;;;6.10;1.20;;;11.80;99.90;;;;;;5017525;28;20057;-81
2022/10/19 07:57:35;;;;;;;5.00;1.70;;;11.90;99.90;;;;;;5000988;28;20081;-82
2022/10/19 08:00:01;;;;;;;7.63;1.58;;;11.90;99.90;;;;;;4999945;28;21876;-81
2022/10/19 08:02:27;;;;;;;7.97;1.58;;;11.90;99.90;;;;;;4987163;28;20056;-82
2022/10/19 08:04:52;;;;;;;7.75;1.65;;;12.00;99.90;;;;;;5013508;28;20052;-82
2022/10/19 08:07:18;;;;;;;9.15;1.90;;;12.10;99.90;;;;;;4998322;28;20041;-82
2022/10/19 08:09:44;;;;;;;7.88;1.98;;;12.20;99.90;;;;;;5022077;28;20068;-82
2022/10/19 08:12:09;;;;;;;7.85;1.70;;;12.30;99.90;;;;;;4997104;28;20163;-82
2022/10/19 08:14:35;;;;;;;5.78;1.42;;;12.40;99.90;;;;;;5003387;28;20510;-82
2022/10/19 08:17:01;;;;;;;5.30;1.40;;;12.50;99.90;;;;;;4997923;28;20065;-82
2022/10/19 08:19:27;;;;;;;5.32;1.70;;;12.50;99.90;;;;;;4998806;28;20049;-82
2022/10/19 08:21:53;;;;;;;7.28;1.95;;;12.60;99.90;;;;;;5002350;28;20107;-85
2022/10/19 08:24:19;;;;;;;9.45;1.42;;;12.70;99.90;;;;;;5012601;28;20466;-82
2022/10/19 08:26:46;;;;;;;13.18;1.65;;;12.80;99.90;;;;;;4996677;28;20042;-85
2022/10/19 08:29:17;;;;;;;7.72;1.85;;;12.80;99.90;;;;;;5012870;28;20041;-81
2022/10/19 08:31:44;;;;;;;8.82;1.52;;;12.80;99.90;;;;;;5013798;28;20057;-81
2022/10/19 08:34:11;;;;;;;5.90;1.55;;;12.90;99.90;;;;;;5012960;28;20112;-81
2022/10/19 08:36:37;;;;;;;7.10;1.67;;;12.90;99.90;;;;;;5012868;28;20141;-80
2022/10/19 08:39:05;;;;;;;7.25;1.50;;;13.00;99.90;;;;;;4995579;28;20060;-80
2022/10/19 08:41:39;;;;;;;6.90;1.40;;;13.00;99.90;;;;;;5016140;28;20509;-80
2022/10/19 08:44:27;;;;;;;8.15;1.60;;;13.00;99.90;;;;;;5012842;28;20059;-79
2022/10/19 08:47:20;;;;;;;6.45;1.15;;;13.10;99.90;;;;;;5014884;28;20037;-81
2022/10/19 08:49:46;;;;;;;19.83;1.90;;;13.10;99.90;;;;;;4996757;28;20053;-80
2022/10/19 08:52:20;;;;;;;9.32;1.60;;;13.10;99.90;;;;;;5000729;28;20441;-80
2022/10/19 08:54:55;;;;;;;5.57;1.40;;;13.20;99.90;;;;;;4995457;28;20445;-80
2022/10/19 08:57:35;;;;;;;6.72;1.45;;;13.20;99.90;;;;;;5021414;28;20049;-80
2022/10/19 09:00:16;;;;;;;8.63;1.67;;;13.20;99.90;;;;;;5015328;28;20514;-81
2022/10/19 09:02:47;;;;;;;8.48;1.30;;;13.30;99.90;;;;;;5004178;28;20061;-81
2022/10/19 09:05:29;;;;;;;5.90;1.05;;;13.20;99.90;;;;;;5016205;28;20041;-81
2022/10/19 09:07:58;;;;;;;5.85;1.30;;;13.30;99.90;;;;;;4995447;28;20430;-85
2022/10/19 09:10:39;;;;;;;4.57;1.00;;;13.30;99.90;;;;;;4999311;28;20053;-81
2022/10/19 09:13:43;;;;;;;4.68;1.10;;;13.40;99.90;;;;;;5016920;28;20049;-80
2022/10/19 09:16:14;;;;;;;8.65;1.77;;;13.50;99.90;;;;;;4982244;28;20065;-81
2022/10/19 09:18:42;;;;;;;7.18;1.50;;;13.50;99.90;;;;;;5003171;28;20398;-81
2022/10/19 09:21:20;;;;;;;7.85;1.45;;;13.50;99.90;;;;;;4983408;28;20045;-82
2022/10/19 09:23:58;;;;;;;6.22;1.10;;;13.50;99.90;;;;;;4997433;28;20072;-87
2022/10/19 09:26:40;;;;;;;6.25;1.38;;;13.50;99.90;;;;;;4998792;28;20131;-82
2022/10/19 09:29:31;;;;;;;3.90;1.20;;;13.60;99.90;;;;;;5017720;28;20049;-81
2022/10/19 09:32:00;;;;;;;5.32;1.20;;;13.70;99.90;;;;;;5000851;28;20045;-81
2022/10/19 09:34:37;;;;;;;5.30;1.42;;;13.80;99.90;;;;;;4993301;28;20053;-81
2022/10/19 09:37:03;;;;;;;7.80;1.27;;;13.70;99.90;;;;;;5011849;28;20127;-81
2022/10/19 09:39:29;;;;;;;5.95;1.20;;;13.70;99.90;;;;;;5015544;28;20056;-81
2022/10/19 09:42:03;;;;;;;6.60;1.33;;;13.70;99.90;;;;;;5013970;28;20080;-81
2022/10/19 09:44:29;;;;;;;5.85;1.40;;;13.90;99.90;;;;;;5003090;28;20053;-81
2022/10/19 09:47:29;;;;;;;5.15;1.30;;;13.60;99.90;;;;;;5015918;28;20448;-81
2022/10/19 09:50:17;;;;;;;6.15;1.33;;;13.70;99.90;;;;;;5000000;28;20050;-81
2022/10/19 09:52:50;;;;;;;5.72;1.42;;;13.70;99.90;;;;;;5002221;28;20495;-81
2022/10/19 09:55:37;;;;;;;5.63;1.30;;;13.70;99.90;;;;;;4994238;28;20041;-81
2022/10/19 09:58:24;;;;;;;5.93;1.20;;;13.70;99.90;;;;;;5021026;28;20134;-82
2022/10/19 10:00:56;;;;;;;10.30;1.55;;;13.80;99.90;;;;;;5024284;28;20045;-81
2022/10/19 10:03:39;;;;;;;7.18;1.17;;;13.90;99.90;;;;;;5018184;28;20077;-82
2022/10/19 10:06:08;;;;;;;6.80;1.20;;;14.10;99.90;;;;;;5034775;28;20068;-81
2022/10/19 10:08:43;;;;;;;6.45;1.27;;;14.30;99.90;;;;;;5007990;28;20527;-81
2022/10/19 10:11:15;;;;;;;6.55;1.30;;;14.40;99.90;;;;;;5008879;28;20406;-81
2022/10/19 10:13:46;;;;;;;5.82;1.30;;;14.60;99.90;;;;;;5008683;28;20053;-82
2022/10/19 10:16:19;;;;;;;7.47;1.40;;;15.20;99.90;;;;;;5017919;28;20153;-82
2022/10/19 10:18:55;;;;;;;4.40;1.10;;;14.80;99.90;;;;;;5007952;28;20062;-82
2022/10/19 10:21:35;;;;;;;8.02;1.50;;;14.80;99.90;;;;;;5004851;28;20552;-82
2022/10/19 10:24:11;;;;;;;6.50;1.27;;;14.80;99.90;;;;;;5023338;28;20491;-82
2022/10/19 10:26:43;;;;;;;5.22;1.35;;;14.70;99.90;;;;;;5034559;28;20402;-81
2022/10/19 10:29:19;;;;;;;6.32;1.50;;;14.80;99.90;;;;;;5008580;28;20049;-80
2022/10/19 10:32:05;;;;;;;6.15;1.50;;;14.70;99.90;;;;;;5024214;28;20145;-81
2022/10/19 10:34:43;;;;;;;4.70;1.48;;;14.70;99.90;;;;;;5007370;28;20042;-81
2022/10/19 10:37:20;;;;;;;9.13;1.20;;;14.70;99.90;;;;;;5006554;28;20050;-81
2022/10/19 10:39:51;;;;;;;6.63;1.30;;;14.70;99.90;;;;;;5018772;28;20404;-81
2022/10/19 10:42:24;;;;;;;5.68;1.33;;;14.80;99.90;;;;;;5022408;28;20049;-80
2022/10/19 10:44:52;;;;;;;4.07;1.30;;;15.50;99.90;;;;;;5001247;28;20056;-81
2022/10/19 10:47:20;;;;;;;5.38;1.15;;;15.00;99.90;;;;;;5018654;28;20044;-81
2022/10/19 10:49:55;;;;;;;6.05;1.27;;;15.10;99.90;;;;;;5006023;28;20075;-81
2022/10/19 10:52:21;;;;;;;7.25;1.45;;;15.20;99.90;;;;;;5017525;28;20049;-80
2022/10/19 10:55:07;;;;;;;4.93;1.33;;;15.20;99.90;;;;;;5002754;28;20084;-80
2022/10/19 10:57:46;;;;;;;3.72;1.30;;;15.40;99.90;;;;;;5005480;28;20060;-79
2022/10/19 11:00:22;;;;;;;5.70;1.25;;;15.70;99.90;;;;;;5020118;28;20034;-80
2022/10/19 11:03:15;;;;;;;3.83;1.10;;;15.80;99.90;;;;;;5017968;28;20053;-81
2022/10/19 11:05:49;;;;;;;7.22;1.85;;;15.80;99.90;;;;;;5021232;28;20495;-80
2022/10/19 11:08:21;;;;;;;7.18;1.17;;;15.80;99.90;;;;;;5035238;28;20045;-80
2022/10/19 11:10:54;;;;;;;4.55;1.20;;;15.80;99.90;;;;;;5015392;28;20041;-80
2022/10/19 11:13:46;;;;;;;7.22;1.30;;;15.60;99.90;;;;;;5014989;28;20045;-80
2022/10/19 11:16:31;;;;;;;6.13;1.58;;;15.70;99.90;;;;;;5014911;28;20480;-81
2022/10/19 11:19:01;;;;;;;5.57;1.50;;;15.70;99.90;;;;;;5015476;28;20548;-80
2022/10/19 11:21:41;;;;;;;4.40;1.38;;;15.80;99.90;;;;;;5019125;28;20143;-80
2022/10/19 11:24:34;;;;;;;7.00;1.40;;;15.80;99.90;;;;;;5023380;28;20049;-81
2022/10/19 11:27:10;;;;;;;6.30;1.38;;;15.70;99.90;;;;;;5015869;28;20041;-80
2022/10/19 11:30:00;;;;;;;4.35;1.10;;;15.80;99.90;;;;;;5019242;28;20045;-81
2022/10/19 11:32:50;;;;;;;6.28;1.33;;;15.90;99.90;;;;;;5017242;28;20325;-80
2022/10/19 11:35:16;;;;;;;3.50;0.95;;;16.10;99.90;;;;;;4996532;28;20148;-81
2022/10/19 11:38:08;;;;;;;6.20;1.05;;;16.20;99.90;;;;;;5016667;28;20124;-81
2022/10/19 11:40:45;;;;;;;5.90;1.45;;;16.20;99.90;;;;;;4997913;28;20061;-80
2022/10/19 11:43:57;;;;;;;6.20;1.50;;;16.40;99.90;;;;;;5016894;28;20108;-80
2022/10/19 11:46:50;;;;;;;4.75;1.67;;;16.80;99.90;;;;;;5004596;28;20080;-81
2022/10/19 11:49:31;;;;;;;5.32;1.38;;;18.00;99.90;;;;;;5033993;28;20096;-81
2022/10/19 11:52:17;;;;;;;5.80;1.20;;;18.30;99.90;;;;;;4995328;28;20045;-81
2022/10/19 11:55:42;;;;;;;4.70;1.40;;;19.10;99.90;;;;;;5016886;28;20148;-81
2022/10/19 11:58:33;;;;;;;4.32;1.30;;;18.80;99.90;;;;;;4975895;28;20053;-82
2022/10/19 12:01:06;;;;;;;9.13;1.98;;;18.20;99.90;;;;;;5008367;28;20122;-81
2022/10/19 12:03:31;;;;;;;5.70;1.33;;;18.10;99.90;;;;;;5010131;28;20088;-81
2022/10/19 12:06:12;;;;;;;3.97;1.08;;;18.30;99.90;;;;;;5000294;28;20084;-81
2022/10/19 12:08:50;;;;;;;6.70;1.52;;;19.40;99.90;;;;;;5006293;28;20498;-81
2022/10/19 12:11:34;;;;;;;5.93;1.40;;;20.50;99.90;;;;;;5014052;28;20045;-81
2022/10/19 12:14:04;;;;;;;4.00;1.10;;;21.50;99.90;;;;;;5003893;28;20049;-81
2022/10/19 12:16:40;;;;;;;4.82;1.05;;;22.00;99.40;;;;;;5017865;28;20427;-80
2022/10/19 12:19:10;;;;;;;;;;;21.80;98.10;;;;;;5016530;28;20138;-81
2022/10/19 12:21:39;;;;;;;8.18;1.20;;;21.20;97.50;;;;;;5016782;28;19972;-81
2022/10/19 12:24:16;;;;;;;7.85;1.25;;;20.70;99.90;;;;;;5016153;28;20041;-81
2022/10/19 12:26:45;;;;;;;5.30;1.70;;;20.30;99.50;;;;;;5015034;28;20514;-82
2022/10/19 12:29:20;;;;;;;7.10;1.20;;;20.30;99.90;;;;;;5000113;28;20114;-82
2022/10/19 12:31:47;;;;;;;6.03;1.20;;;20.10;99.70;;;;;;5014495;28;20042;-82
2022/10/19 12:34:39;;;;;;;4.85;1.27;;;19.40;99.90;;;;;;4996437;28;20474;-81
2022/10/19 12:37:18;;;;;;;4.75;0.90;;;18.80;99.90;;;;;;5020877;28;20068;-81
2022/10/19 12:39:52;;;;;;;6.30;1.17;;;18.50;99.90;;;;;;5003384;28;20073;-81
2022/10/19 12:42:56;;;;;;;4.20;1.08;;;18.20;99.90;;;;;;4995593;28;20506;-81
2022/10/19 12:45:22;;;;;;;3.15;1.00;;;18.00;99.90;;;;;;4989692;28;20537;-81
2022/10/19 12:48:07;;;;;;;6.88;1.83;;;17.70;99.90;;;;;;5014762;28;20127;-81
2022/10/19 12:50:57;;;;;;;6.65;1.48;;;17.60;99.90;;;;;;5014747;28;20050;-81
2022/10/19 12:53:39;;;;;;;4.57;1.00;;;18.10;99.90;;;;;;5014170;28;20413;-81
2022/10/19 12:56:08;;;;;;;4.70;1.10;;;18.40;99.90;;;;;;5012587;28;20053;-81
2022/10/19 12:58:43;;;;;;;4.82;1.40;;;18.60;99.90;;;;;;5013874;28;20076;-81
2022/10/19 13:01:25;;;;;;;4.18;1.38;;;18.50;99.90;;;;;;5013383;28;20049;-81
2022/10/19 13:04:06;;;;;;;6.18;1.52;;;18.30;99.90;;;;;;4998707;28;20049;-81
2022/10/19 13:06:34;;;;;;;6.05;1.45;;;18.20;99.90;;;;;;4994572;28;20065;-82
2022/10/19 13:09:03;;;;;;;5.60;1.20;;;18.10;99.90;;;;;;5004086;28;20045;-82